Time;durP1;ratioP1;P1;durP2;ratioP2;P2;SDS_P1;SDS_P2;PMS_P1;PMS_P2;Temp;Humidity;BMP_temperature;BMP_pressure;BME280_temperature;BME280_humidity;BME280_pressure;Samples;Min_cycle;Max_cycle;Signal;HPM_P1;HPM_P2
2023/04/13 00:03:17;;;;;;;19.35;10.55;;;5.60;99.90;;;;;;20749577;28;20383;-48
2023/04/13 00:13:18;;;;;;;12.02;6.05;;;5.60;99.90;;;;;;20749851;28;20042;-60
2023/04/13 00:23:20;;;;;;;11.80;7.05;;;5.50;99.90;;;;;;20745234;28;20038;-49
2023/04/13 00:33:21;;;;;;;16.05;9.43;;;5.40;99.90;;;;;;20747202;28;20030;-48
2023/04/13 00:43:24;;;;;;;22.05;13.13;;;5.40;99.90;;;;;;20747532;28;20034;-60
2023/04/13 00:53:26;;;;;;;27.70;15.32;;;5.50;99.90;;;;;;20746663;28;20104;-47
2023/04/13 01:03:30;;;;;;;36.03;18.27;;;5.70;99.90;;;;;;20746013;28;20153;-50
2023/04/13 01:13:41;;;;;;;23.25;14.18;;;5.70;99.90;;;;;;20743402;28;20046;-49
2023/04/13 01:23:53;;;;;;;15.10;8.27;;;5.70;99.90;;;;;;20743059;28;20045;-47
2023/04/13 01:33:55;;;;;;;16.20;8.13;;;5.60;99.90;;;;;;20742475;28;20033;-47
2023/04/13 01:43:57;;;;;;;14.48;8.40;;;5.40;99.90;;;;;;20742942;28;20272;-63
2023/04/13 01:54:11;;;;;;;12.10;7.93;;;5.40;99.90;;;;;;20742366;28;20400;-45
2023/04/13 02:04:14;;;;;;;;;;;5.40;99.90;;;;;;20741071;28;20438;-47
2023/04/13 02:14:17;;;;;;;14.48;8.25;;;5.20;99.90;;;;;;20740695;28;19921;-47
2023/04/13 02:24:19;;;;;;;8.73;4.97;;;5.10;99.90;;;;;;20739544;28;20042;-49
2023/04/13 02:34:21;;;;;;;3.78;2.53;;;5.10;99.90;;;;;;20739692;28;20084;-47
2023/04/13 02:44:23;;;;;;;2.22;1.17;;;4.80;99.90;;;;;;20738620;28;20297;-64
2023/04/13 02:54:30;;;;;;;3.00;2.10;;;4.40;99.90;;;;;;20737829;28;20042;-47
2023/04/13 03:04:32;;;;;;;2.60;1.88;;;4.30;99.90;;;;;;20737332;28;20034;-49
2023/04/13 03:14:35;;;;;;;4.47;2.78;;;4.40;99.90;;;;;;20736627;28;20491;-62
2023/04/13 03:24:41;;;;;;;56.92;7.28;;;4.50;99.90;;;;;;20731656;28;20065;-60
2023/04/13 03:34:44;;;;;;;28.35;5.95;;;4.60;99.90;;;;;;20736327;28;20041;-63
2023/04/13 03:44:47;;;;;;;30.77;6.03;;;4.60;99.90;;;;;;20750467;28;20033;-63
2023/04/13 03:54:49;;;;;;;12.10;6.53;;;4.70;99.90;;;;;;20750740;28;20095;-46
2023/04/13 04:04:51;;;;;;;5.53;2.50;;;4.70;99.90;;;;;;20749658;28;20034;-63
2023/04/13 04:14:53;;;;;;;3.95;2.13;;;4.60;99.90;;;;;;20748713;28;20069;-63
2023/04/13 04:25:00;;;;;;;4.55;1.90;;;4.50;99.90;;;;;;20747945;28;20415;-63
2023/04/13 04:35:03;;;;;;;3.38;1.70;;;4.30;99.90;;;;;;20758946;28;20042;-63
2023/04/13 04:45:09;;;;;;;4.65;2.53;;;4.30;99.90;;;;;;20743786;28;20034;-63
2023/04/13 04:55:16;;;;;;;2.83;1.70;;;4.10;99.90;;;;;;20744291;28;20044;-46
2023/04/13 05:05:18;;;;;;;2.35;1.20;;;4.10;99.90;;;;;;20746009;28;20088;-47
2023/04/13 05:15:20;;;;;;;3.83;2.40;;;4.20;99.90;;;;;;20741499;28;20356;-47
2023/04/13 05:25:22;;;;;;;5.22;2.90;;;4.20;99.90;;;;;;20744601;28;20037;-62
2023/04/13 05:35:26;;;;;;;6.47;2.83;;;4.20;99.90;;;;;;20742781;28;20033;-47
2023/04/13 05:45:29;;;;;;;1.65;1.10;;;4.30;99.90;;;;;;20741980;28;20042;-52
2023/04/13 05:55:39;;;;;;;1.35;0.85;;;4.50;99.90;;;;;;20728153;28;20383;-64
2023/04/13 06:05:41;;;;;;;2.97;1.50;;;4.50;99.90;;;;;;20741886;28;20065;-63
2023/04/13 06:15:43;;;;;;;0.95;0.70;;;4.60;99.90;;;;;;20738782;28;20450;-64
2023/04/13 06:25:45;;;;;;;2.10;1.00;;;4.70;99.90;;;;;;20739032;28;20534;-47
2023/04/13 06:35:51;;;;;;;0.98;0.77;;;4.80;99.90;;;;;;20735212;28;20029;-46
2023/04/13 06:45:58;;;;;;;3.30;1.67;;;4.80;99.90;;;;;;20739136;28;20127;-64
2023/04/13 06:56:03;;;;;;;3.83;2.60;;;4.90;99.90;;;;;;20737690;28;20030;-63
2023/04/13 07:06:07;;;;;;;2.47;1.02;;;5.10;99.90;;;;;;20737418;28;20088;-64
2023/04/13 07:16:14;;;;;;;3.65;2.10;;;5.30;99.90;;;;;;20746401;28;20092;-47
2023/04/13 07:26:19;;;;;;;1.40;0.90;;;5.40;99.90;;;;;;20752457;28;20434;-45
2023/04/13 07:36:22;;;;;;;0.60;0.35;;;5.20;99.90;;;;;;20750203;28;20025;-46
2023/04/13 07:46:26;;;;;;;0.30;0.20;;;5.10;99.90;;;;;;20750703;28;20033;-47
2023/04/13 07:56:30;;;;;;;0.10;0.10;;;4.60;99.90;;;;;;20750348;28;20033;-59
2023/04/13 08:06:33;;;;;;;0.00;0.00;;;4.20;99.90;;;;;;20743500;28;20042;-46
2023/04/13 08:16:36;;;;;;;0.00;0.00;;;3.50;99.90;;;;;;20748663;28;20111;-45
2023/04/13 08:26:41;;;;;;;0.00;0.00;;;3.30;99.90;;;;;;20748210;28;20033;-47
2023/04/13 08:36:44;;;;;;;0.00;0.00;;;3.30;99.90;;;;;;20749751;28;20042;-62
2023/04/13 08:46:47;;;;;;;0.10;0.00;;;3.20;99.90;;;;;;20744469;28;20395;-61
2023/04/13 08:56:51;;;;;;;0.00;0.00;;;3.10;99.90;;;;;;20745570;28;20038;-61
2023/04/13 09:06:59;;;;;;;0.00;0.00;;;3.10;99.90;;;;;;20740389;28;20030;-63
2023/04/13 09:17:01;;;;;;;0.00;0.00;;;3.10;99.90;;;;;;20743649;28;20108;-62
2023/04/13 09:27:22;;;;;;;0.70;0.17;;;2.90;99.90;;;;;;20735861;28;20038;-51
2023/04/13 09:37:27;;;;;;;3.05;0.77;;;2.50;99.90;;;;;;20743695;28;20088;-44
2023/04/13 09:47:37;;;;;;;0.50;0.20;;;1.90;99.90;;;;;;20743154;28;20438;-46
2023/04/13 09:57:39;;;;;;;0.00;0.00;;;1.50;99.90;;;;;;20742299;28;20033;-60
2023/04/13 10:07:47;;;;;;;0.00;0.00;;;1.50;99.90;;;;;;20740043;28;20045;-46
2023/04/13 10:18:03;;;;;;;0.00;0.00;;;1.50;99.90;;;;;;20740982;28;20050;-45
2023/04/13 10:28:05;;;;;;;0.00;0.00;;;1.50;99.90;;;;;;20741477;28;20391;-46
2023/04/13 10:38:08;;;;;;;0.00;0.00;;;1.70;99.90;;;;;;20738568;28;20037;-47
2023/04/13 10:48:20;;;;;;;0.00;0.00;;;2.00;99.90;;;;;;20740449;28;20091;-46
2023/04/13 10:58:22;;;;;;;0.00;0.00;;;2.00;99.90;;;;;;20737478;28;20160;-48
2023/04/13 11:08:26;;;;;;;0.00;0.00;;;2.00;99.90;;;;;;20738665;28;20026;-45
2023/04/13 11:18:28;;;;;;;0.00;0.00;;;2.10;99.90;;;;;;20738356;28;20042;-45
2023/04/13 11:28:45;;;;;;;0.00;0.00;;;2.00;99.90;;;;;;20737978;28;20026;-49
2023/04/13 11:38:46;;;;;;;0.05;0.00;;;1.40;99.90;;;;;;20737282;28;20030;-47
2023/04/13 11:48:48;;;;;;;0.00;0.00;;;1.50;99.90;;;;;;20737183;28;20025;-45
2023/04/13 11:58:51;;;;;;;0.00;0.00;;;1.50;99.90;;;;;;20740633;28;20030;-47
2023/04/13 12:09:01;;;;;;;0.00;0.00;;;1.80;99.90;;;;;;20748643;28;20135;-48
2023/04/13 12:19:07;;;;;;;0.00;0.00;;;2.00;99.90;;;;;;20750449;28;20112;-46
2023/04/13 12:29:09;;;;;;;0.00;0.00;;;2.20;99.90;;;;;;20749706;28;20053;-48
2023/04/13 12:39:10;;;;;;;0.00;0.00;;;2.00;99.90;;;;;;20748782;28;20426;-45
2023/04/13 12:49:12;;;;;;;0.00;0.00;;;1.90;99.90;;;;;;20748108;28;20030;-48
2023/04/13 12:59:13;;;;;;;0.00;0.00;;;2.00;99.90;;;;;;20747601;28;20026;-48
2023/04/13 13:09:15;;;;;;;0.00;0.00;;;2.20;99.90;;;;;;20746998;28;20041;-47
2023/04/13 13:19:16;;;;;;;0.00;0.00;;;1.90;99.90;;;;;;20745329;28;20034;-47
2023/04/13 13:29:18;;;;;;;0.63;0.00;;;2.00;99.90;;;;;;20744745;28;20092;-48
2023/04/13 13:39:21;;;;;;;0.00;0.00;;;2.00;99.90;;;;;;20743622;28;20026;-49
2023/04/13 13:49:23;;;;;;;0.17;0.00;;;2.30;99.90;;;;;;20742521;28;20438;-46
2023/04/13 13:59:43;;;;;;;;;;;1.80;99.90;;;;;;20742771;28;20038;-48
2023/04/13 14:09:45;;;;;;;0.00;0.00;;;1.50;99.90;;;;;;20740324;28;20374;-51
2023/04/13 14:19:46;;;;;;;0.20;0.10;;;1.60;99.90;;;;;;20740320;28;20042;-47
2023/04/13 14:29:49;;;;;;;0.40;0.10;;;2.10;99.90;;;;;;20739711;28;20049;-48
2023/04/13 14:39:51;;;;;;;0.47;0.10;;;1.80;99.90;;;;;;20738571;28;20030;-47
2023/04/13 14:49:54;;;;;;;0.20;0.10;;;1.40;99.90;;;;;;20741479;28;20049;-50
2023/04/13 14:59:55;;;;;;;0.22;0.10;;;0.90;99.90;;;;;;20739053;28;20042;-49
2023/04/13 15:09:57;;;;;;;0.68;0.10;;;1.00;99.90;;;;;;20738383;28;20513;-48
2023/04/13 15:19:59;;;;;;;2.35;0.10;;;1.10;99.90;;;;;;20737334;28;20050;-51
2023/04/13 15:30:02;;;;;;;0.73;0.10;;;1.10;99.90;;;;;;20737874;28;20033;-58
2023/04/13 15:40:06;;;;;;;0.20;0.20;;;1.00;99.90;;;;;;20750380;28;20131;-49
2023/04/13 15:50:08;;;;;;;0.15;0.10;;;1.00;99.90;;;;;;20752331;28;20044;-48
2023/04/13 16:00:11;;;;;;;0.52;0.10;;;1.00;99.90;;;;;;20752133;28;20129;-52
2023/04/13 16:10:17;;;;;;;0.00;0.00;;;1.00;99.90;;;;;;20747906;28;20038;-51
2023/04/13 16:20:19;;;;;;;0.20;0.10;;;1.00;99.90;;;;;;20765310;28;20069;-51
2023/04/13 16:30:21;;;;;;;1.23;0.10;;;1.00;99.90;;;;;;20733040;28;20038;-59
2023/04/13 16:40:23;;;;;;;0.22;0.10;;;1.00;99.90;;;;;;20745475;28;20073;-48
2023/04/13 16:50:27;;;;;;;1.15;0.30;;;0.90;99.90;;;;;;20747231;28;20030;-60
2023/04/13 17:00:29;;;;;;;1.75;0.20;;;0.80;99.90;;;;;;20742814;28;20041;-60
2023/04/13 17:10:31;;;;;;;0.10;0.10;;;0.70;99.90;;;;;;20746806;28;20037;-60
2023/04/13 17:20:33;;;;;;;0.65;0.10;;;0.60;99.90;;;;;;20745418;28;20450;-50
2023/04/13 17:30:35;;;;;;;0.88;0.10;;;0.60;99.90;;;;;;20744424;28;20042;-49
2023/04/13 17:40:36;;;;;;;0.50;0.10;;;0.50;99.90;;;;;;20742164;28;20105;-50
2023/04/13 17:50:38;;;;;;;2.20;0.20;;;0.60;99.90;;;;;;20743064;28;20048;-60
2023/04/13 18:00:40;;;;;;;0.15;0.10;;;0.60;99.90;;;;;;20742079;28;20030;-48
2023/04/13 18:10:41;;;;;;;0.10;0.03;;;0.70;99.90;;;;;;20741496;28;20030;-51
2023/04/13 18:20:45;;;;;;;1.23;0.10;;;0.60;99.90;;;;;;20740901;28;20046;-50
2023/04/13 18:30:47;;;;;;;0.60;0.10;;;0.40;99.90;;;;;;20741846;28;20034;-49
2023/04/13 18:40:49;;;;;;;0.40;0.10;;;0.30;99.90;;;;;;20737019;28;20030;-47
2023/04/13 18:50:51;;;;;;;0.08;0.03;;;0.20;99.90;;;;;;20741726;28;20022;-50
2023/04/13 19:00:52;;;;;;;0.20;0.10;;;0.20;99.90;;;;;;20738883;28;20041;-48
2023/04/13 19:10:54;;;;;;;0.20;0.13;;;0.10;99.90;;;;;;20744571;28;20076;-62
2023/04/13 19:20:56;;;;;;;0.50;0.30;;;0.10;99.90;;;;;;20754356;28;20108;-51
2023/04/13 19:30:57;;;;;;;0.60;0.25;;;0.00;99.90;;;;;;20751491;28;20038;-51
2023/04/13 19:40:59;;;;;;;0.20;0.20;;;0.00;99.90;;;;;;20752227;28;20030;-61
2023/04/13 19:51:01;;;;;;;0.40;0.30;;;-0.10;99.90;;;;;;20752079;28;20475;-49
2023/04/13 20:01:06;;;;;;;0.70;0.30;;;-0.10;99.90;;;;;;20750522;28;20116;-62
2023/04/13 20:11:08;;;;;;;0.77;0.52;;;-0.10;99.90;;;;;;20751758;28;20545;-48
2023/04/13 20:21:13;;;;;;;1.33;0.60;;;-0.20;99.90;;;;;;20749801;28;20042;-49
2023/04/13 20:31:15;;;;;;;2.05;0.38;;;-0.20;99.90;;;;;;20749244;28;20483;-61
2023/04/13 20:41:18;;;;;;;0.50;0.38;;;-0.20;99.90;;;;;;20748489;28;20030;-60
2023/04/13 20:51:22;;;;;;;1.15;0.65;;;-0.20;99.90;;;;;;20747691;28;20494;-60
2023/04/13 21:01:24;;;;;;;0.70;0.20;;;-0.30;99.90;;;;;;20746876;28;20099;-60
2023/04/13 21:11:26;;;;;;;0.17;0.10;;;-0.20;99.90;;;;;;20746170;28;20042;-60
2023/04/13 21:21:27;;;;;;;1.80;0.10;;;-0.20;99.90;;;;;;20745242;28;20076;-52
2023/04/13 21:31:29;;;;;;;0.55;0.10;;;-0.10;99.90;;;;;;20743135;28;20042;-60
2023/04/13 21:41:31;;;;;;;2.20;0.10;;;-0.10;99.90;;;;;;20742442;28;20483;-49
2023/04/13 21:51:32;;;;;;;0.47;0.10;;;0.00;99.90;;;;;;20743182;28;20038;-61
2023/04/13 22:01:34;;;;;;;0.63;0.10;;;0.00;99.90;;;;;;20742096;28;20116;-49
2023/04/13 22:11:35;;;;;;;0.57;0.10;;;0.10;99.90;;;;;;20741848;28;20034;-49
2023/04/13 22:21:37;;;;;;;0.43;0.10;;;0.10;99.90;;;;;;20741717;28;20548;-49
2023/04/13 22:31:39;;;;;;;0.20;0.10;;;0.10;99.90;;;;;;20739061;28;20415;-51
2023/04/13 22:41:40;;;;;;;0.30;0.00;;;0.20;99.90;;;;;;20754387;28;20033;-49
2023/04/13 22:51:42;;;;;;;0.80;0.20;;;0.30;99.90;;;;;;20739578;28;20030;-49
2023/04/13 23:01:43;;;;;;;0.38;0.17;;;0.10;99.90;;;;;;20739066;28;20096;-51
2023/04/13 23:11:45;;;;;;;0.45;0.20;;;0.10;99.90;;;;;;20738702;28;20037;-52
2023/04/13 23:21:46;;;;;;;0.52;0.10;;;0.10;99.90;;;;;;20738246;28;20156;-49
2023/04/13 23:31:48;;;;;;;0.38;0.10;;;0.00;99.90;;;;;;20737835;28;20081;-63
2023/04/13 23:41:50;;;;;;;0.40;0.20;;;0.00;99.90;;;;;;20737283;28;20025;-52
2023/04/13 23:51:52;;;;;;;0.55;0.32;;;0.00;99.90;;;;;;20737246;28;20029;-51
